Aviation Digital Data Service (ADDS)

Output produced by METARs form (1106 UTC 18 October 2017)
found at http://www.aviationweather.gov/adds/metars/
 
OOSA 181050Z 19013KT CAVOK 30/23 Q1009 NOSIG
TAF OOSA 172340Z 1800/1906 VRB03KT 9999 FEW025 
     BECMG 1805/1806 19010KT 
     BECMG 1818/1820 VRB03KT
       
OOMS 181050Z 05010KT 9000 FEW025 SCT120 32/27 Q1008 NOSIG
TAF OOMS 181100Z 1812/1918 04012KT 8000 NSC 
     BECMG 1816/1818 VRB02KT 
     PROB30 
     TEMPO 1822/1902 4900 BR BKN015 
     BECMG 1906/1908 35014KT